aviador You're here:

KTYS Decoded Metar

KNOXVILLE in TN, USA
Report Time2017-07-24 15:53:00
UTC Time2017-07-24 16:31:38
Flight Rules vfr VFR
Wind240° at 03 kt
W.Decomp.*RWY 23: 2.9 kt HW 0.7 kt RCW
W.Rank240° ranks 4
Current wind is below 240° avg. (7.8)
Visibility9999 m
Phenomena:N/A
Clouds:Scattered 021 Hf
Broken 250 Hf
Expected CloudBase > 2,400 ft AGL from Temp-Dew spread
Ceiling25,000 ft
Temp27°C (ISA +14)
Dew Point21°C (70% RH)
Heat Index28.9°C
QNH1016 hPa
Density Alt2,831 ft
Elevation991 ft
Report Wrong Elevation
Raw Report
METAR KTYS 241553Z 24003KT 10SM SCT021 BKN250 27/21 A3000 RMK AO2 SLP146
T02670206=

Extra information for KTYS:More info

Metar Taf Metar & Taf Last 4 Metars F.Rules Stats Wind Profile Meteogram Temp Stats Airport Information Weather charts Add Link Nearby VenuesMetar ALERT Operation Metar Decoded Social comments

AIRNAV info for KTYS